createdAt,value
2018-05-11T00:00:33.749Z,18.63
2018-05-11T00:03:02.127Z,18.71
2018-05-11T00:05:30.508Z,18.66
2018-05-11T00:07:58.880Z,18.72
2018-05-11T00:10:27.302Z,18.77
2018-05-11T00:12:55.669Z,18.75
2018-05-11T00:15:24.043Z,18.78
2018-05-11T00:17:52.428Z,18.77
2018-05-11T00:20:20.808Z,18.80
2018-05-11T00:22:49.214Z,18.85
2018-05-11T00:25:17.595Z,18.82
2018-05-11T00:27:45.977Z,18.89
2018-05-11T00:30:14.352Z,18.85
2018-05-11T00:32:42.720Z,18.91
2018-05-11T00:35:11.108Z,18.93
2018-05-11T00:37:39.473Z,18.93
2018-05-11T00:40:08.356Z,18.73
2018-05-11T00:42:36.742Z,18.87
2018-05-11T00:45:07.641Z,18.86
2018-05-11T00:47:36.027Z,18.74
2018-05-11T00:50:06.811Z,18.70
2018-05-11T00:52:36.986Z,18.66
2018-05-11T00:55:16.380Z,18.37
2018-05-11T00:57:44.758Z,18.23
2018-05-11T01:00:13.145Z,18.13
2018-05-11T01:02:41.518Z,18.17
2018-05-11T01:05:09.913Z,18.01
2018-05-11T01:07:38.279Z,17.91
2018-05-11T01:10:09.135Z,17.86
2018-05-11T01:12:38.003Z,17.82
2018-05-11T01:15:09.454Z,17.79
2018-05-11T01:17:37.819Z,17.65
2018-05-11T01:20:06.477Z,17.80
2018-05-11T01:22:34.892Z,17.89
2018-05-11T01:25:03.292Z,17.88
2018-05-11T01:27:31.683Z,17.78
2018-05-11T01:30:00.078Z,17.74
2018-05-11T01:32:28.110Z,17.72
2018-05-11T01:34:56.489Z,17.76
2018-05-11T01:37:24.867Z,17.75
2018-05-11T01:39:53.307Z,17.69
2018-05-11T01:42:21.822Z,17.67
2018-05-11T01:44:50.185Z,17.64
2018-05-11T01:47:18.554Z,17.56
2018-05-11T01:49:46.923Z,17.54
2018-05-11T01:52:16.082Z,17.57
2018-05-11T01:54:44.222Z,17.52
2018-05-11T01:57:12.614Z,17.47
2018-05-11T01:59:40.971Z,17.51
2018-05-11T02:02:09.364Z,17.51
2018-05-11T02:04:37.767Z,17.46
2018-05-11T02:07:05.981Z,17.48
2018-05-11T02:09:34.349Z,17.42
2018-05-11T02:12:02.745Z,17.46
2018-05-11T02:14:31.109Z,17.48
2018-05-11T02:16:59.711Z,17.43
2018-05-11T02:19:28.075Z,17.42
2018-05-11T02:21:56.443Z,17.42
2018-05-11T02:24:24.816Z,17.38
2018-05-11T02:26:53.592Z,17.39
2018-05-11T02:29:22.106Z,17.34
2018-05-11T02:31:51.451Z,17.32
2018-05-11T02:34:20.057Z,17.32
2018-05-11T02:36:48.439Z,17.32
2018-05-11T02:39:16.816Z,17.32
2018-05-11T02:41:44.973Z,17.29
2018-05-11T02:44:13.345Z,17.29
2018-05-11T02:46:41.727Z,17.25
2018-05-11T02:49:10.099Z,17.24
2018-05-11T02:51:38.461Z,17.30
2018-05-11T02:54:06.845Z,17.28
2018-05-11T02:56:34.977Z,17.29
2018-05-11T02:59:03.361Z,16.82
2018-05-11T03:01:31.838Z,17.26
2018-05-11T03:04:01.171Z,17.28
2018-05-11T03:06:29.494Z,17.27
2018-05-11T03:08:57.864Z,17.24
2018-05-11T03:11:26.247Z,16.75
2018-05-11T03:13:54.629Z,17.25
2018-05-11T03:16:23.008Z,17.23
2018-05-11T03:18:51.386Z,17.20
2018-05-11T03:21:19.753Z,17.20
2018-05-11T03:23:48.151Z,17.21
2018-05-11T03:26:16.517Z,17.20
2018-05-11T03:28:45.534Z,17.15
2018-05-11T03:31:14.831Z,17.11
2018-05-11T03:33:43.209Z,17.10
2018-05-11T03:36:11.603Z,17.10
2018-05-11T03:38:39.970Z,17.12
2018-05-11T03:41:08.878Z,17.06
2018-05-11T03:43:37.252Z,17.03
2018-05-11T03:46:05.636Z,17.05
2018-05-11T03:48:34.005Z,17.09
2018-05-11T03:51:02.376Z,17.04
2018-05-11T03:53:30.737Z,17.05
2018-05-11T03:55:59.141Z,17.09
2018-05-11T03:58:27.522Z,17.11
2018-05-11T04:00:55.881Z,17.14
2018-05-11T04:03:35.260Z,17.12
2018-05-11T04:06:04.777Z,17.14
2018-05-11T04:08:51.344Z,17.11
2018-05-11T04:11:20.561Z,17.17
2018-05-11T04:13:48.932Z,17.18
2018-05-11T04:16:17.317Z,17.23
2018-05-11T04:18:45.693Z,17.23
2018-05-11T04:21:14.151Z,17.27
2018-05-11T04:23:42.548Z,17.32
2018-05-11T04:26:10.909Z,17.36
2018-05-11T04:28:39.278Z,17.44
2018-05-11T04:31:07.646Z,17.43
2018-05-11T04:33:36.038Z,17.45
2018-05-11T04:36:04.402Z,17.50
2018-05-11T04:38:32.778Z,17.45
2018-05-11T04:41:01.154Z,17.47
2018-05-11T04:43:29.553Z,17.58
2018-05-11T04:45:58.645Z,17.63
2018-05-11T04:48:27.033Z,17.60
2018-05-11T04:50:55.407Z,17.71
2018-05-11T04:53:23.790Z,17.75
2018-05-11T04:55:51.944Z,17.70
2018-05-11T04:58:20.317Z,17.69
2018-05-11T05:00:48.685Z,17.64
2018-05-11T05:03:17.137Z,17.69
2018-05-11T05:05:45.628Z,17.87
2018-05-11T05:08:13.997Z,17.90
2018-05-11T05:10:43.101Z,17.85
2018-05-11T05:13:11.475Z,17.90
2018-05-11T05:15:39.853Z,17.95
2018-05-11T05:18:08.863Z,17.95
2018-05-11T05:20:37.227Z,17.98
2018-05-11T05:23:05.860Z,18.06
2018-05-11T05:25:34.236Z,18.13
2018-05-11T05:28:03.634Z,18.14
2018-05-11T05:30:32.017Z,18.19
2018-05-11T05:33:00.484Z,18.14
2018-05-11T05:35:28.985Z,18.19
2018-05-11T05:37:57.357Z,18.19
2018-05-11T05:40:25.741Z,18.12
2018-05-11T05:42:53.991Z,18.15
2018-05-11T05:45:22.365Z,18.12
2018-05-11T05:47:50.738Z,18.26
2018-05-11T05:50:20.322Z,18.10
2018-05-11T05:52:49.541Z,18.30
2018-05-11T05:55:20.458Z,18.30
2018-05-11T05:57:49.471Z,18.36
2018-05-11T06:00:19.368Z,17.63
2018-05-11T06:02:48.018Z,18.15
2018-05-11T06:05:18.418Z,18.40
2018-05-11T06:07:46.793Z,18.21
2018-05-11T06:10:15.197Z,18.46
2018-05-11T06:12:43.602Z,18.32
2018-05-11T06:15:12.028Z,17.36
2018-05-11T06:17:40.457Z,18.39
2018-05-11T06:20:09.024Z,18.45
2018-05-11T06:22:37.396Z,18.48
2018-05-11T06:25:05.819Z,18.37
2018-05-11T06:27:34.216Z,18.39
2018-05-11T06:30:02.604Z,18.39
2018-05-11T06:32:30.992Z,18.40
2018-05-11T06:35:00.281Z,18.38
2018-05-11T06:37:28.680Z,18.44
2018-05-11T06:39:57.063Z,18.09
2018-05-11T06:42:25.449Z,18.41
2018-05-11T06:44:53.817Z,18.49
2018-05-11T06:47:22.181Z,18.66
2018-05-11T06:49:50.550Z,18.81
2018-05-11T06:52:18.930Z,18.84
2018-05-11T06:54:47.305Z,18.63
2018-05-11T06:57:15.691Z,18.78
2018-05-11T06:59:44.163Z,19.06
2018-05-11T07:02:12.543Z,18.88
2018-05-11T07:04:40.940Z,18.84
2018-05-11T07:07:09.323Z,19.43
2018-05-11T07:09:38.691Z,19.39
2018-05-11T07:12:07.069Z,19.31
2018-05-11T07:14:35.455Z,19.58
2018-05-11T07:17:04.349Z,19.71
2018-05-11T07:19:32.768Z,19.53
2018-05-11T07:22:01.369Z,19.82
2018-05-11T07:24:29.775Z,19.21
2018-05-11T07:26:58.195Z,19.30
2018-05-11T07:29:26.568Z,19.19
2018-05-11T07:31:54.979Z,18.88
2018-05-11T07:34:23.365Z,18.78
2018-05-11T07:36:51.761Z,18.79
2018-05-11T07:39:20.138Z,19.11
2018-05-11T07:41:48.513Z,18.88
2018-05-11T07:44:16.897Z,18.77
2018-05-11T07:46:45.280Z,18.96
2018-05-11T07:49:13.658Z,18.84
2018-05-11T07:51:42.085Z,18.61
2018-05-11T07:54:10.663Z,18.71
2018-05-11T07:56:39.113Z,18.91
2018-05-11T07:59:07.501Z,18.96
2018-05-11T08:01:35.937Z,18.86
2018-05-11T08:04:04.404Z,18.89
2018-05-11T08:06:32.909Z,18.87
2018-05-11T08:09:01.285Z,19.03
2018-05-11T08:11:30.553Z,19.16
2018-05-11T08:13:58.930Z,19.09
2018-05-11T08:16:28.090Z,18.93
2018-05-11T08:18:56.325Z,19.24
2018-05-11T08:21:24.798Z,19.23
2018-05-11T08:23:54.014Z,19.30
2018-05-11T08:26:22.413Z,19.32
2018-05-11T08:28:50.777Z,19.43
2018-05-11T08:31:19.222Z,19.29
2018-05-11T08:33:47.595Z,19.48
2018-05-11T08:36:15.957Z,19.05
2018-05-11T08:38:44.327Z,19.26
2018-05-11T08:41:12.696Z,19.21
2018-05-11T08:43:41.059Z,19.47
2018-05-11T08:46:09.435Z,19.44
2018-05-11T08:48:37.802Z,19.56
2018-05-11T08:51:06.169Z,19.87
2018-05-11T08:53:34.552Z,19.86
2018-05-11T08:56:02.743Z,19.86
2018-05-11T08:58:31.118Z,19.79
2018-05-11T09:00:59.502Z,19.90
2018-05-11T09:03:27.988Z,19.82
2018-05-11T09:05:56.378Z,19.97
2018-05-11T09:08:24.878Z,20.02
2018-05-11T09:10:53.365Z,19.98
2018-05-11T09:13:21.744Z,19.93
2018-05-11T09:15:50.130Z,19.89
2018-05-11T09:18:18.514Z,19.78
2018-05-11T09:20:46.877Z,19.64
2018-05-11T09:23:15.258Z,19.43
2018-05-11T09:25:43.659Z,19.73
2018-05-11T09:28:12.809Z,19.92
2018-05-11T09:30:41.378Z,19.85
2018-05-11T09:33:09.765Z,19.74
2018-05-11T09:35:38.573Z,19.88
2018-05-11T09:38:07.007Z,19.93
2018-05-11T09:40:35.398Z,20.04
2018-05-11T09:43:03.780Z,20.18
2018-05-11T09:45:32.157Z,19.89
2018-05-11T09:48:00.539Z,19.81
2018-05-11T09:50:28.913Z,19.87
2018-05-11T09:52:57.121Z,19.80
2018-05-11T09:55:25.538Z,19.70
2018-05-11T09:57:54.758Z,19.83
2018-05-11T10:00:26.087Z,19.85
2018-05-11T10:02:54.564Z,19.67
2018-05-11T10:05:23.079Z,19.69
2018-05-11T10:07:51.822Z,19.72
2018-05-11T10:10:21.304Z,19.98
2018-05-11T10:12:49.703Z,19.87
2018-05-11T10:15:22.964Z,19.95
2018-05-11T10:17:51.375Z,20.10
2018-05-11T10:20:21.714Z,19.73
2018-05-11T10:22:50.098Z,20.10
2018-05-11T10:25:19.621Z,19.93
2018-05-11T10:27:48.089Z,19.87
2018-05-11T10:30:16.488Z,20.15
2018-05-11T10:32:44.877Z,19.93
2018-05-11T10:35:15.818Z,20.11
2018-05-11T10:37:44.323Z,20.27
2018-05-11T10:40:15.754Z,20.26
2018-05-11T10:42:45.661Z,20.15
2018-05-11T10:45:14.062Z,19.23
2018-05-11T10:47:42.451Z,20.12
2018-05-11T10:50:10.847Z,20.08
2018-05-11T10:52:39.225Z,20.16
2018-05-11T10:55:07.316Z,20.61
2018-05-11T10:57:35.765Z,20.62
2018-05-11T11:00:03.579Z,20.85
2018-05-11T11:02:31.958Z,20.69
2018-05-11T11:05:00.349Z,20.59
2018-05-11T11:07:28.722Z,20.70
2018-05-11T11:09:57.115Z,21.12
2018-05-11T11:12:25.492Z,21.28
2018-05-11T11:14:53.902Z,21.43
2018-05-11T11:17:22.067Z,21.37
2018-05-11T11:19:50.478Z,21.57
2018-05-11T11:22:18.856Z,21.37
2018-05-11T11:24:47.229Z,21.34
2018-05-11T11:27:15.617Z,21.61
2018-05-11T11:29:44.033Z,21.76
2018-05-11T11:32:12.421Z,21.81
2018-05-11T11:34:40.807Z,22.08
2018-05-11T11:37:09.376Z,22.24
2018-05-11T11:39:37.768Z,22.12
2018-05-11T11:42:06.234Z,22.37
2018-05-11T11:44:34.737Z,22.45
2018-05-11T11:47:03.132Z,22.35
2018-05-11T11:49:31.516Z,22.55
2018-05-11T11:51:59.892Z,22.53
2018-05-11T11:54:28.269Z,22.32
2018-05-11T11:56:57.262Z,22.35
2018-05-11T11:59:25.660Z,22.26
2018-05-11T12:01:54.066Z,22.39
2018-05-11T12:04:22.608Z,22.51
2018-05-11T12:06:50.751Z,22.58
2018-05-11T12:09:19.129Z,22.60
2018-05-11T12:11:47.517Z,22.68
2018-05-11T12:14:16.113Z,22.78
2018-05-11T12:16:44.503Z,22.69
2018-05-11T12:19:12.887Z,22.51
2018-05-11T12:21:41.281Z,22.51
2018-05-11T12:24:09.694Z,22.78
2018-05-11T12:26:38.072Z,22.89
2018-05-11T12:29:06.473Z,22.79
2018-05-11T12:31:34.851Z,22.77
2018-05-11T12:34:03.223Z,22.79
2018-05-11T12:36:31.619Z,23.22
2018-05-11T12:39:00.004Z,23.27
2018-05-11T12:41:28.442Z,23.24
2018-05-11T12:43:56.809Z,23.25
2018-05-11T12:46:25.357Z,22.93
2018-05-11T12:48:53.752Z,22.93
2018-05-11T12:51:22.209Z,22.97
2018-05-11T12:53:50.739Z,23.17
2018-05-11T12:56:19.112Z,23.46
2018-05-11T12:58:47.506Z,23.88
2018-05-11T13:01:15.872Z,23.40
2018-05-11T13:03:44.269Z,23.14
2018-05-11T13:06:12.679Z,23.50
2018-05-11T13:08:41.050Z,23.77
2018-05-11T13:11:09.457Z,23.53
2018-05-11T13:13:37.893Z,23.43
2018-05-11T13:16:06.272Z,23.58
2018-05-11T13:18:34.708Z,24.00
2018-05-11T13:21:03.163Z,24.26
2018-05-11T13:23:31.527Z,24.65
2018-05-11T13:25:59.928Z,24.96
2018-05-11T13:28:28.304Z,25.13
2018-05-11T13:30:56.678Z,24.60
2018-05-11T13:33:25.060Z,24.30
2018-05-11T13:35:53.484Z,24.22
2018-05-11T13:38:21.854Z,24.14
2018-05-11T13:40:50.225Z,24.12
2018-05-11T13:43:18.409Z,24.19
2018-05-11T13:45:46.780Z,24.32
2018-05-11T13:48:15.272Z,24.32
2018-05-11T13:50:43.754Z,24.25
2018-05-11T13:53:12.126Z,24.18
2018-05-11T13:55:40.528Z,24.41
2018-05-11T13:58:08.911Z,24.35
2018-05-11T14:00:37.347Z,24.54
2018-05-11T14:03:05.724Z,24.68
2018-05-11T14:05:34.104Z,24.81
2018-05-11T14:08:02.519Z,24.98
2018-05-11T14:10:30.889Z,25.23
2018-05-11T14:12:59.260Z,25.47
2018-05-11T14:15:27.880Z,24.60
2018-05-11T14:17:56.261Z,25.47
2018-05-11T14:20:24.635Z,25.34
2018-05-11T14:22:53.003Z,25.43
2018-05-11T14:25:21.581Z,25.09
2018-05-11T14:27:49.973Z,25.10
2018-05-11T14:30:18.548Z,25.17
2018-05-11T14:32:47.021Z,25.20
2018-05-11T14:35:15.415Z,25.31
2018-05-11T14:37:43.826Z,25.31
2018-05-11T14:40:12.286Z,25.21
2018-05-11T14:42:40.692Z,25.12
2018-05-11T14:45:09.088Z,25.05
2018-05-11T14:47:37.466Z,25.08
2018-05-11T14:50:05.873Z,25.04
2018-05-11T14:52:34.293Z,25.18
2018-05-11T14:55:02.441Z,25.03
2018-05-11T14:57:30.829Z,24.98
2018-05-11T14:59:59.199Z,25.01
2018-05-11T15:02:27.565Z,25.24
2018-05-11T15:04:55.943Z,25.30
2018-05-11T15:07:24.328Z,25.39
2018-05-11T15:09:52.725Z,25.22
2018-05-11T15:12:21.092Z,25.14
2018-05-11T15:14:49.465Z,25.14
2018-05-11T15:17:17.680Z,25.08
2018-05-11T15:19:46.894Z,25.05
2018-05-11T15:22:16.723Z,24.94
2018-05-11T15:24:45.105Z,24.97
2018-05-11T15:27:13.480Z,24.81
2018-05-11T15:29:41.866Z,24.69
2018-05-11T15:32:10.439Z,24.69
2018-05-11T15:34:38.523Z,24.81
2018-05-11T15:37:06.894Z,24.83
2018-05-11T15:39:35.314Z,24.69
2018-05-11T15:42:03.723Z,24.76
2018-05-11T15:44:32.128Z,24.77
2018-05-11T15:47:00.522Z,24.78
2018-05-11T15:49:28.890Z,24.74
2018-05-11T15:51:57.275Z,24.81
2018-05-11T15:54:25.653Z,24.85
2018-05-11T15:56:54.054Z,24.78
2018-05-11T15:59:22.434Z,24.79
2018-05-11T16:01:50.798Z,24.66
2018-05-11T16:04:19.218Z,24.59
2018-05-11T16:06:47.592Z,24.60
2018-05-11T16:09:16.016Z,24.57
2018-05-11T16:11:45.589Z,24.58
2018-05-11T16:14:14.001Z,24.63
2018-05-11T16:16:42.378Z,24.64
2018-05-11T16:19:11.717Z,24.71
2018-05-11T16:21:40.107Z,24.67
2018-05-11T16:24:08.474Z,24.69
2018-05-11T16:26:36.850Z,24.74
2018-05-11T16:29:05.729Z,24.66
2018-05-11T16:31:35.017Z,24.73
2018-05-11T16:34:03.423Z,24.68
2018-05-11T16:36:31.829Z,24.70
2018-05-11T16:39:00.207Z,24.68
2018-05-11T16:41:28.590Z,24.61
2018-05-11T16:43:57.046Z,24.56
2018-05-11T16:46:26.237Z,24.54
2018-05-11T16:48:54.601Z,24.51
2018-05-11T16:51:22.750Z,24.56
2018-05-11T16:53:51.650Z,24.51
2018-05-11T16:56:20.185Z,24.49
2018-05-11T16:58:48.565Z,24.43
2018-05-11T17:01:16.978Z,24.48
2018-05-11T17:03:45.352Z,24.48
2018-05-11T17:06:13.765Z,24.53
2018-05-11T17:08:42.158Z,24.50
2018-05-11T17:11:10.533Z,24.42
2018-05-11T17:13:38.939Z,24.40
2018-05-11T17:16:07.316Z,24.39
2018-05-11T17:18:35.700Z,24.34
2018-05-11T17:21:04.091Z,24.33
2018-05-11T17:23:32.469Z,24.34
2018-05-11T17:26:00.842Z,24.24
2018-05-11T17:28:29.852Z,24.19
2018-05-11T17:30:58.237Z,24.15
2018-05-11T17:33:27.640Z,24.17
2018-05-11T17:35:57.116Z,24.05
2018-05-11T17:38:25.507Z,23.97
2018-05-11T17:40:53.889Z,24.03
2018-05-11T17:43:22.901Z,24.00
2018-05-11T17:45:53.506Z,23.98
2018-05-11T17:48:21.894Z,23.98
2018-05-11T17:50:50.285Z,23.99
2018-05-11T17:53:18.841Z,23.98
2018-05-11T17:55:47.260Z,23.94
2018-05-11T17:58:15.676Z,23.96
2018-05-11T18:00:44.085Z,23.94
2018-05-11T18:03:12.552Z,23.94
2018-05-11T18:05:41.264Z,23.79
2018-05-11T18:08:09.665Z,23.85
2018-05-11T18:10:38.083Z,23.80
2018-05-11T18:13:06.792Z,23.78
2018-05-11T18:15:35.192Z,23.77
2018-05-11T18:18:03.574Z,23.75
2018-05-11T18:20:31.975Z,23.73
2018-05-11T18:23:00.425Z,23.73
2018-05-11T18:25:29.081Z,23.72
2018-05-11T18:27:57.452Z,23.71
2018-05-11T18:30:26.757Z,23.63
2018-05-11T18:32:55.136Z,23.60
2018-05-11T18:35:26.274Z,23.56
2018-05-11T18:37:54.659Z,23.55
2018-05-11T18:40:24.780Z,23.46
2018-05-11T18:42:53.768Z,23.43
2018-05-11T18:45:25.156Z,23.31
2018-05-11T18:47:53.578Z,23.27
2018-05-11T18:50:23.323Z,22.79
2018-05-11T18:52:51.847Z,23.09
2018-05-11T18:55:22.006Z,23.10
2018-05-11T18:57:50.404Z,23.09
2018-05-11T19:00:18.826Z,23.03
2018-05-11T19:02:47.226Z,23.03
2018-05-11T19:05:18.042Z,23.04
2018-05-11T19:07:46.693Z,23.02
2018-05-11T19:10:15.719Z,22.65
2018-05-11T19:12:45.280Z,22.96
2018-05-11T19:15:14.665Z,22.91
2018-05-11T19:17:43.272Z,22.80
2018-05-11T19:20:11.649Z,22.82
2018-05-11T19:22:40.018Z,22.54
2018-05-11T19:25:08.425Z,22.41
2018-05-11T19:27:36.967Z,22.10
2018-05-11T19:30:05.042Z,21.98
2018-05-11T19:32:33.441Z,22.00
2018-05-11T19:35:02.476Z,21.88
2018-05-11T19:37:30.861Z,21.70
2018-05-11T19:39:59.546Z,21.70
2018-05-11T19:42:27.942Z,21.71
2018-05-11T19:44:56.541Z,21.69
2018-05-11T19:47:24.931Z,21.66
2018-05-11T19:49:53.321Z,21.65
2018-05-11T19:52:21.704Z,21.63
2018-05-11T19:54:50.084Z,21.57
2018-05-11T19:57:18.577Z,21.29
2018-05-11T19:59:47.043Z,21.10
2018-05-11T20:02:16.205Z,20.93
2018-05-11T20:04:45.562Z,20.78
2018-05-11T20:07:14.035Z,20.70
2018-05-11T20:09:42.414Z,20.64
2018-05-11T20:12:10.795Z,20.71
2018-05-11T20:14:39.237Z,20.55
2018-05-11T20:17:07.637Z,20.48
2018-05-11T20:19:36.052Z,20.44
2018-05-11T20:22:04.441Z,20.34
2018-05-11T20:24:32.813Z,20.36
2018-05-11T20:27:01.196Z,20.19
2018-05-11T20:29:29.576Z,20.06
2018-05-11T20:31:58.157Z,20.02
2018-05-11T20:34:26.534Z,20.01
2018-05-11T20:36:55.686Z,19.95
2018-05-11T20:39:24.956Z,19.94
2018-05-11T20:41:53.338Z,19.82
2018-05-11T20:44:21.734Z,19.61
2018-05-11T20:46:50.122Z,19.59
2018-05-11T20:49:18.504Z,19.50
2018-05-11T20:51:46.882Z,18.78
2018-05-11T20:54:15.258Z,19.52
2018-05-11T20:56:43.627Z,19.58
2018-05-11T20:59:12.040Z,19.57
2018-05-11T21:01:40.286Z,19.58
2018-05-11T21:04:08.674Z,19.44
2018-05-11T21:06:37.055Z,19.37
2018-05-11T21:09:04.910Z,19.27
2018-05-11T21:11:33.278Z,19.11
2018-05-11T21:14:01.655Z,19.01
2018-05-11T21:16:30.060Z,18.99
2018-05-11T21:18:58.443Z,19.04
2018-05-11T21:21:27.587Z,19.22
2018-05-11T21:23:55.969Z,19.23
2018-05-11T21:26:24.352Z,19.22
2018-05-11T21:28:52.764Z,19.21
2018-05-11T21:31:21.165Z,19.25
2018-05-11T21:33:49.567Z,19.27
2018-05-11T21:36:17.974Z,19.30
2018-05-11T21:38:46.140Z,19.29
2018-05-11T21:41:14.564Z,19.21
2018-05-11T21:43:43.114Z,19.23
2018-05-11T21:46:11.497Z,19.10
2018-05-11T21:48:39.906Z,19.07
2018-05-11T21:51:08.288Z,18.87
2018-05-11T21:53:36.667Z,18.82
2018-05-11T21:56:05.051Z,18.77
2018-05-11T21:58:33.432Z,18.78
2018-05-11T22:01:02.066Z,18.60
2018-05-11T22:03:30.798Z,18.59
2018-05-11T22:05:59.207Z,18.69
2018-05-11T22:08:27.743Z,18.67
2018-05-11T22:10:56.117Z,18.75
2018-05-11T22:13:24.499Z,18.84
2018-05-11T22:15:52.899Z,18.91
2018-05-11T22:18:21.775Z,18.86
2018-05-11T22:20:50.173Z,18.88
2018-05-11T22:23:18.542Z,18.81
2018-05-11T22:25:46.921Z,18.81
2018-05-11T22:28:15.300Z,18.77
2018-05-11T22:30:43.699Z,18.65
2018-05-11T22:33:12.083Z,18.49
2018-05-11T22:35:40.483Z,18.55
2018-05-11T22:38:08.882Z,18.58
2018-05-11T22:40:37.263Z,18.53
2018-05-11T22:43:05.792Z,18.50
2018-05-11T22:45:34.194Z,18.58
2018-05-11T22:48:02.604Z,18.57
2018-05-11T22:50:30.981Z,18.56
2018-05-11T22:52:59.378Z,18.38
2018-05-11T22:55:29.502Z,17.92
2018-05-11T22:57:57.879Z,18.20
2018-05-11T23:00:28.309Z,18.02
2018-05-11T23:02:56.710Z,17.86
2018-05-11T23:05:25.090Z,17.78
2018-05-11T23:07:53.478Z,17.81
2018-05-11T23:10:21.865Z,17.79
2018-05-11T23:12:50.244Z,17.71
2018-05-11T23:15:19.905Z,17.71
2018-05-11T23:17:48.332Z,17.79
2018-05-11T23:20:18.630Z,17.66
2018-05-11T23:22:47.590Z,17.59
2018-05-11T23:25:19.652Z,17.13
2018-05-11T23:27:48.055Z,17.36
2018-05-11T23:30:20.401Z,17.35
2018-05-11T23:32:49.112Z,17.43
2018-05-11T23:35:21.150Z,17.51
2018-05-11T23:37:49.565Z,17.63
2018-05-11T23:40:17.609Z,17.54
2018-05-11T23:42:46.006Z,17.33
2018-05-11T23:45:18.399Z,17.35
2018-05-11T23:47:47.452Z,17.32
2018-05-11T23:50:18.865Z,17.31
2018-05-11T23:52:47.224Z,17.31
2018-05-11T23:55:15.925Z,17.04
2018-05-11T23:57:45.857Z,17.49
